Atlantic - Newfoundland: Past 24 Hour Conditions

 

Cape Race

03:30 AM NST 26 November 2014
This table is a summary of hourly weather conditions for the past 24 hours.
Date / Time
(NST)
Wind(knots) Conditions Visibility(km) Pressure(kPa) Air tempC) Relative humidity(%) Dew pointC)
26 November 2014
3:30 WSW 24 gust 30 N/A N/A 100.9 8 99 8
2:30 W 23 gust 28 N/A N/A 100.9 8 98 8
1:30 WSW 23 gust 30 N/A N/A 100.9 8 99 8
0:30 WSW 22 gust 28 N/A N/A 100.8 9 98 8
25 November 2014
23:30 WSW 23 gust 28 N/A N/A 100.9 9 99 9
22:30 WSW 26 gust 31 N/A N/A 100.9 8 98 8
21:30 WSW 19 gust 26 N/A N/A 100.9 9 100 9
20:30 WSW 22 gust 30 N/A N/A 100.9 10 N/A 11
19:30 WSW 26 gust 33 N/A N/A 100.9 10 N/A 11
18:30 WSW 28 gust 33 N/A N/A 100.9 10 N/A 11
17:30 WSW 23 gust 28 N/A N/A 100.9 10 N/A 10
16:30 WSW 25 gust 31 N/A N/A 100.9 10 N/A 11
15:30 WSW 20 gust 28 N/A N/A 101.0 9 N/A 9
14:30 SW 25 gust 30 N/A N/A 101.0 10 100 10
13:30 SW 26 gust 33 N/A N/A 100.9 9 99 9
12:30 SW 25 gust 30 N/A N/A 100.9 10 98 10
11:30 SW 28 gust 38 N/A N/A 101.0 10 97 9
10:30 SW 29 gust 37 N/A N/A 101.1 10 97 9
9:30 SW 31 gust 43 N/A N/A 101.1 10 97 9
8:30 SSW 31 gust 40 N/A N/A 101.2 9 96 9
7:30 SSW 32 gust 38 N/A N/A 101.2 9 97 8
6:30 S 32 gust 41 N/A N/A 101.4 8 95 7
5:30 S 32 gust 43 N/A N/A 101.5 7 93 6
4:30 S 27 gust 36 N/A N/A 101.8 6 93 5
3:30 S 24 gust 30 N/A N/A 102.0 5 93 4
 
Map of Atlantic - Newfoundland marine weather areas Southwestern Grand Banks - 44138 Banquereau - 44139 Tail of the Bank - 44140 Nickerson Bank - 44251 Northeast Burgeo Bank - 44255 Blanc-Sablon Airport Cap Whittle Chevery Natashquan Airport Heath Point Miscou Island Grand Étang Ingonish Beach North Mountain St.Paul Island J.A. Douglas McCurdy Sydney Airport Charlottetown Airport East Point North Cape Argentia Bonavista Burgeo Cape Race Corner Brook Daniel's Harbour Englee Ferolle Point La Scie Port aux Basques Rocky Harbour Sagona Island St. Anthony Airport St. John's Int'l Airport St. Lawrence Stephenville Airport Twillingate Winterland Wreckhouse Cartwright Airport Mary's Harbour Grates Cove Pool's Island Marticot Island Long Pond Îles de la Madeleine Airport
Legend: buoyBuoy land stationLand Station